Aeroporto :
LOGIN :

Iscrizione | Disclaimer

   EN    FR    IT 

 










Sommario :    VFR   VFR Marginale   IFR   IFR Intensivo   IFR Molto Intensivo
Visibilità : 
Base nubi : 
>= 8 km
>= 3000ft
5 / 8 km
1000 / 3000 ft
1500m / 5 km
500 / 1000 ft
800 / 1500m
200 / 500 ft
< 800m
< 200 ft
Simboli :   Temporali  Nebbia  Neve Forte  Precipitazioni Forti  Vento > 20 kt
SIGMETs :   Varie  Temporali  Ghiacco  Turbolenza  Onda orograficha  Ceneri Vulcaniche







- Altitudine del aeroporto : 405 ft
- Codice IATA : SUJ


LRSM - Satu Mare

ULTIMO METAR :
  • 200830Z 33003KT 260V050 CAVOK 09/01 Q1029

METARs OBSOLETI :
  • 200800Z 36004KT 340V040 CAVOK 08/01 Q1029
  • 200730Z 34004KT 290V010 CAVOK 08/01 Q1028
  • 200700Z 33004KT 290V020 CAVOK 06/M00 Q1028
  • 200630Z 28003KT 240V340 CAVOK 05/M00 Q1028
  • 200600Z 24003KT CAVOK 04/M00 Q1028

TAF TAF LRSM
Valido dal 20 a 09 ore il 20 a 18 ore UTC


200800Z 2009/2018 35010KT 9999 SCT040
Nessun NOTAM noto per questo aeroporto.



MetMap, La meteo Aeronautica in un colpo d'occhio ! - Copyright ORBIFLY Dicembre 2007 - Disclaimer

ORBIFLY MET'MAP TEAM :

Programmazione e sviluppo : Alexandra Zaïnal
Concezione e sviluppo : Baudouin d'Aumeries
Co-Programmazione e sviluppo : Marc-Olivier Méhu
Supporto tecnico e logistico : Manuel Goepfert
Aiuto per la traduzione : Arnaldo La Scala

Contatto : metmap@orbifly.com




FONTI E CREDITI :

   NOAA